METAR AND TAF INFORMATION
METAR FOR LEVC
ADDS - METARS form results

(0327 UTC 12 December 2018)
Data provider http://aviationweather.gov/metar/data/
 
METAR text: LEVC 120300Z 28006KT CAVOK 06/05 Q1019 NOSIG
Conditions at: LEVC (VALENCIA (CIV/MI, ES) observed 0300 UTC 12 December 2018
Temperature: 6.0°C (43°F)
Dewpoint: 5.0°C (41°F) [RH = 93%]
Pressure (altimeter): 30.09 inches Hg (1019.0 mb)
Winds: from the W (280 degrees) at 7 MPH (6 knots; 3.1 m/s)
Visibility: 6 or more miles (10+ km)
Ceiling: ceiling and visibility are OK
Clouds: unknown
Weather: no significant weather observed at this time

METAR text: LEVC 120230Z 30003KT CAVOK 06/05 Q1019 NOSIG
Conditions at: LEVC (VALENCIA (CIV/MI, ES) observed 0230 UTC 12 December 2018
Temperature: 6.0°C (43°F)
Dewpoint: 5.0°C (41°F) [RH = 93%]
Pressure (altimeter): 30.09 inches Hg (1019.0 mb)
Winds: from the WNW (300 degrees) at 3 MPH (3 knots; 1.5 m/s)
Visibility: 6 or more miles (10+ km)
Ceiling: ceiling and visibility are OK
Clouds: unknown
Weather: no significant weather observed at this time

Forecast for: LEVC (VALENCIA (CIV/MI, ES)
Text: TAF LEVC 112300Z 1200/1224 27005KT 9999 FEW020 TX20/1212Z TN05/1206Z
Forecast period: 0000 UTC 12 December 2018 to 0000 UTC 13 December 2018
Forecast type: FROM: standard forecast or significant change
Winds: from the W (270 degrees) at 6 MPH (5 knots; 2.6 m/s)
Visibility: 6 or more miles 10+ km)
Ceiling: at least 12,000 feet AGL
Clouds: few clouds at 2000 feet AGL
Weather: no significant weather forecast for this period

 AIRPORT MAP

 RUNWAY INFORMATION
Runway 04 Runway length 5394 ft Runway width 148 ft
Runway elevation 205 ft Runway displaced threshold 0 ft Runway heading 38
Runway 22 Runway length 5394 ft Runway width 148 ft
Runway elevation 188 ft Runway displaced threshold 0 ft Runway heading 218
Runway 12 Runway length 8858 ft Runway width 148 ft
Runway elevation 225 ft Runway displaced threshold 0 ft Runway heading 116
Runway 30 Runway length 8858 ft Runway width 148 ft
Runway elevation 172 ft Runway displaced threshold 0 ft Runway heading 296

 AIRPORT FREQUENCIES
Type APP Name APP Frequency 120.1 MHZ
Type ATIS Name ATIS Frequency 121.075 MHZ
Type GND Name GND Frequency 121.7 MHZ
Type TWR Name TWR Frequency 118.55 MHZ

 AIRPORT NEAR NAVIGATION AIDS
Type NDB Name Valencia Frequency 400 KHZ
Type NDB Name Valencia Frequency 340 KHZ
Type NDB Name Sagunto Frequency 356 KHZ
Type VOR-DME Name Valencia Frequency 116100 KHZ